sensor_id;sensor_type;location;lat;lon;timestamp;P1;durP1;ratioP1;P2;durP2;ratioP2
36725;SDS011;44936;52.086;5.150;2022-09-01T00:00:21;5.78;;;0.50;;
36725;SDS011;44936;52.086;5.150;2022-09-01T00:02:52;1.40;;;0.50;;
36725;SDS011;44936;52.086;5.150;2022-09-01T00:05:18;1.05;;;0.60;;
36725;SDS011;44936;52.086;5.150;2022-09-01T00:07:43;0.40;;;0.10;;
36725;SDS011;44936;52.086;5.150;2022-09-01T00:10:09;0.45;;;0.30;;
36725;SDS011;44936;52.086;5.150;2022-09-01T00:12:34;1.25;;;0.60;;
36725;SDS011;44936;52.086;5.150;2022-09-01T00:14:59;0.65;;;0.50;;
36725;SDS011;44936;52.086;5.150;2022-09-01T00:17:25;1.07;;;0.50;;
36725;SDS011;44936;52.086;5.150;2022-09-01T00:19:51;0.75;;;0.60;;
36725;SDS011;44936;52.086;5.150;2022-09-01T00:22:16;0.95;;;0.60;;
36725;SDS011;44936;52.086;5.150;2022-09-01T00:24:41;0.65;;;0.40;;
36725;SDS011;44936;52.086;5.150;2022-09-01T00:27:07;0.43;;;0.37;;
36725;SDS011;44936;52.086;5.150;2022-09-01T00:29:32;1.60;;;0.50;;
36725;SDS011;44936;52.086;5.150;2022-09-01T00:31:57;1.00;;;0.63;;
36725;SDS011;44936;52.086;5.150;2022-09-01T00:34:23;1.10;;;0.77;;
36725;SDS011;44936;52.086;5.150;2022-09-01T00:36:48;0.57;;;0.50;;
36725;SDS011;44936;52.086;5.150;2022-09-01T00:39:14;0.50;;;0.50;;
36725;SDS011;44936;52.086;5.150;2022-09-01T00:41:40;2.35;;;0.52;;
36725;SDS011;44936;52.086;5.150;2022-09-01T00:44:10;0.40;;;0.40;;
36725;SDS011;44936;52.086;5.150;2022-09-01T00:46:37;0.98;;;0.50;;
36725;SDS011;44936;52.086;5.150;2022-09-01T00:49:05;1.27;;;0.68;;
36725;SDS011;44936;52.086;5.150;2022-09-01T00:51:32;0.50;;;0.50;;
36725;SDS011;44936;52.086;5.150;2022-09-01T00:53:58;1.38;;;0.57;;
36725;SDS011;44936;52.086;5.150;2022-09-01T00:56:24;0.68;;;0.52;;
36725;SDS011;44936;52.086;5.150;2022-09-01T00:58:50;0.60;;;0.60;;
36725;SDS011;44936;52.086;5.150;2022-09-01T01:01:17;1.65;;;0.65;;
36725;SDS011;44936;52.086;5.150;2022-09-01T01:03:42;1.08;;;0.40;;
36725;SDS011;44936;52.086;5.150;2022-09-01T01:06:11;1.65;;;0.60;;
36725;SDS011;44936;52.086;5.150;2022-09-01T01:08:38;2.63;;;0.77;;
36725;SDS011;44936;52.086;5.150;2022-09-01T01:11:09;0.40;;;0.40;;
36725;SDS011;44936;52.086;5.150;2022-09-01T01:16:19;1.20;;;0.70;;
36725;SDS011;44936;52.086;5.150;2022-09-01T01:18:44;0.75;;;0.30;;
36725;SDS011;44936;52.086;5.150;2022-09-01T01:21:14;0.95;;;0.45;;
36725;SDS011;44936;52.086;5.150;2022-09-01T01:24:01;1.38;;;0.40;;
36725;SDS011;44936;52.086;5.150;2022-09-01T01:26:30;1.60;;;0.63;;
36725;SDS011;44936;52.086;5.150;2022-09-01T01:28:55;1.73;;;0.60;;
36725;SDS011;44936;52.086;5.150;2022-09-01T01:31:20;0.63;;;0.50;;
36725;SDS011;44936;52.086;5.150;2022-09-01T01:33:53;1.05;;;0.70;;
36725;SDS011;44936;52.086;5.150;2022-09-01T01:36:23;1.17;;;0.65;;
36725;SDS011;44936;52.086;5.150;2022-09-01T01:38:56;1.45;;;0.60;;
36725;SDS011;44936;52.086;5.150;2022-09-01T01:41:27;0.88;;;0.40;;
36725;SDS011;44936;52.086;5.150;2022-09-01T01:43:54;0.85;;;0.50;;
36725;SDS011;44936;52.086;5.150;2022-09-01T01:46:19;0.73;;;0.35;;
36725;SDS011;44936;52.086;5.150;2022-09-01T01:48:44;1.13;;;0.57;;
36725;SDS011;44936;52.086;5.150;2022-09-01T01:51:11;1.13;;;0.57;;
36725;SDS011;44936;52.086;5.150;2022-09-01T01:53:38;2.03;;;0.40;;
36725;SDS011;44936;52.086;5.150;2022-09-01T01:56:03;1.38;;;0.50;;
36725;SDS011;44936;52.086;5.150;2022-09-01T01:58:30;0.98;;;0.70;;
36725;SDS011;44936;52.086;5.150;2022-09-01T02:00:56;1.48;;;0.60;;
36725;SDS011;44936;52.086;5.150;2022-09-01T02:03:23;0.50;;;0.50;;
36725;SDS011;44936;52.086;5.150;2022-09-01T02:05:50;0.50;;;0.40;;
36725;SDS011;44936;52.086;5.150;2022-09-01T02:08:16;2.17;;;0.60;;
36725;SDS011;44936;52.086;5.150;2022-09-01T02:10:45;0.80;;;0.50;;
36725;SDS011;44936;52.086;5.150;2022-09-01T02:13:12;1.05;;;0.57;;
36725;SDS011;44936;52.086;5.150;2022-09-01T02:15:41;2.08;;;0.57;;
36725;SDS011;44936;52.086;5.150;2022-09-01T02:18:22;2.75;;;0.70;;
36725;SDS011;44936;52.086;5.150;2022-09-01T02:20:48;0.73;;;0.60;;
36725;SDS011;44936;52.086;5.150;2022-09-01T02:23:14;0.30;;;0.30;;
36725;SDS011;44936;52.086;5.150;2022-09-01T02:25:42;3.10;;;0.68;;
36725;SDS011;44936;52.086;5.150;2022-09-01T02:28:08;1.15;;;0.77;;
36725;SDS011;44936;52.086;5.150;2022-09-01T02:30:36;1.20;;;0.52;;
36725;SDS011;44936;52.086;5.150;2022-09-01T02:33:03;4.80;;;0.80;;
36725;SDS011;44936;52.086;5.150;2022-09-01T02:35:29;3.60;;;1.00;;
36725;SDS011;44936;52.086;5.150;2022-09-01T02:37:58;1.52;;;0.73;;
36725;SDS011;44936;52.086;5.150;2022-09-01T02:40:25;3.25;;;0.70;;
36725;SDS011;44936;52.086;5.150;2022-09-01T02:42:53;1.63;;;0.80;;
36725;SDS011;44936;52.086;5.150;2022-09-01T02:45:19;1.80;;;0.50;;
36725;SDS011;44936;52.086;5.150;2022-09-01T02:47:44;0.60;;;0.50;;
36725;SDS011;44936;52.086;5.150;2022-09-01T02:50:10;0.43;;;0.40;;
36725;SDS011;44936;52.086;5.150;2022-09-01T02:52:45;0.40;;;0.40;;
36725;SDS011;44936;52.086;5.150;2022-09-01T02:55:14;1.27;;;0.73;;
36725;SDS011;44936;52.086;5.150;2022-09-01T02:57:43;0.80;;;0.50;;
36725;SDS011;44936;52.086;5.150;2022-09-01T03:00:12;2.38;;;0.68;;
36725;SDS011;44936;52.086;5.150;2022-09-01T03:02:50;0.70;;;0.57;;
36725;SDS011;44936;52.086;5.150;2022-09-01T03:05:17;0.55;;;0.43;;
36725;SDS011;44936;52.086;5.150;2022-09-01T03:07:49;1.27;;;0.70;;
36725;SDS011;44936;52.086;5.150;2022-09-01T03:10:18;0.50;;;0.35;;
36725;SDS011;44936;52.086;5.150;2022-09-01T03:12:43;0.70;;;0.47;;
36725;SDS011;44936;52.086;5.150;2022-09-01T03:15:08;1.20;;;0.63;;
36725;SDS011;44936;52.086;5.150;2022-09-01T03:17:33;0.80;;;0.60;;
36725;SDS011;44936;52.086;5.150;2022-09-01T03:19:59;2.17;;;0.70;;
36725;SDS011;44936;52.086;5.150;2022-09-01T03:22:24;3.97;;;0.70;;
36725;SDS011;44936;52.086;5.150;2022-09-01T03:24:50;2.20;;;0.70;;
36725;SDS011;44936;52.086;5.150;2022-09-01T03:27:16;1.27;;;0.70;;
36725;SDS011;44936;52.086;5.150;2022-09-01T03:29:41;2.25;;;0.70;;
36725;SDS011;44936;52.086;5.150;2022-09-01T03:32:06;1.30;;;0.83;;
36725;SDS011;44936;52.086;5.150;2022-09-01T03:34:31;0.97;;;0.63;;
36725;SDS011;44936;52.086;5.150;2022-09-01T03:36:58;1.58;;;0.82;;
36725;SDS011;44936;52.086;5.150;2022-09-01T03:39:23;3.05;;;0.70;;
36725;SDS011;44936;52.086;5.150;2022-09-01T03:41:48;4.13;;;0.73;;
36725;SDS011;44936;52.086;5.150;2022-09-01T03:44:14;1.73;;;1.10;;
36725;SDS011;44936;52.086;5.150;2022-09-01T03:46:40;1.45;;;0.50;;
36725;SDS011;44936;52.086;5.150;2022-09-01T03:49:06;0.75;;;0.50;;
36725;SDS011;44936;52.086;5.150;2022-09-01T03:51:32;0.73;;;0.73;;
36725;SDS011;44936;52.086;5.150;2022-09-01T03:53:58;1.33;;;0.60;;
36725;SDS011;44936;52.086;5.150;2022-09-01T03:56:24;1.30;;;0.60;;
36725;SDS011;44936;52.086;5.150;2022-09-01T03:58:51;1.35;;;0.63;;
36725;SDS011;44936;52.086;5.150;2022-09-01T04:01:17;0.65;;;0.57;;
36725;SDS011;44936;52.086;5.150;2022-09-01T04:03:43;0.95;;;0.60;;
36725;SDS011;44936;52.086;5.150;2022-09-01T04:06:12;1.35;;;0.70;;
36725;SDS011;44936;52.086;5.150;2022-09-01T04:08:39;1.17;;;1.00;;
36725;SDS011;44936;52.086;5.150;2022-09-01T04:11:10;2.50;;;0.50;;
36725;SDS011;44936;52.086;5.150;2022-09-01T04:13:38;1.60;;;0.50;;
36725;SDS011;44936;52.086;5.150;2022-09-01T04:16:04;0.60;;;0.52;;
36725;SDS011;44936;52.086;5.150;2022-09-01T04:18:34;2.92;;;0.70;;
36725;SDS011;44936;52.086;5.150;2022-09-01T04:20:59;1.63;;;0.80;;
36725;SDS011;44936;52.086;5.150;2022-09-01T04:23:26;0.90;;;0.53;;
36725;SDS011;44936;52.086;5.150;2022-09-01T04:25:54;0.75;;;0.70;;
36725;SDS011;44936;52.086;5.150;2022-09-01T04:28:21;0.60;;;0.60;;
36725;SDS011;44936;52.086;5.150;2022-09-01T04:30:54;2.03;;;0.50;;
36725;SDS011;44936;52.086;5.150;2022-09-01T04:33:20;0.55;;;0.50;;
36725;SDS011;44936;52.086;5.150;2022-09-01T04:35:46;1.92;;;0.85;;
36725;SDS011;44936;52.086;5.150;2022-09-01T04:38:11;3.63;;;0.95;;
36725;SDS011;44936;52.086;5.150;2022-09-01T04:40:39;0.95;;;0.57;;
36725;SDS011;44936;52.086;5.150;2022-09-01T04:43:05;1.42;;;0.50;;
36725;SDS011;44936;52.086;5.150;2022-09-01T04:45:30;2.92;;;0.75;;
36725;SDS011;44936;52.086;5.150;2022-09-01T04:47:58;2.70;;;0.70;;
36725;SDS011;44936;52.086;5.150;2022-09-01T04:50:24;1.10;;;0.65;;
36725;SDS011;44936;52.086;5.150;2022-09-01T04:52:51;1.98;;;0.75;;
36725;SDS011;44936;52.086;5.150;2022-09-01T04:55:18;2.35;;;0.88;;
36725;SDS011;44936;52.086;5.150;2022-09-01T04:57:44;1.38;;;0.75;;
36725;SDS011;44936;52.086;5.150;2022-09-01T05:00:12;1.00;;;0.60;;
36725;SDS011;44936;52.086;5.150;2022-09-01T05:02:46;0.57;;;0.50;;
36725;SDS011;44936;52.086;5.150;2022-09-01T05:05:11;1.52;;;0.60;;
36725;SDS011;44936;52.086;5.150;2022-09-01T05:07:36;1.85;;;0.73;;
36725;SDS011;44936;52.086;5.150;2022-09-01T05:10:02;0.90;;;0.67;;
36725;SDS011;44936;52.086;5.150;2022-09-01T05:12:27;2.65;;;0.60;;
36725;SDS011;44936;52.086;5.150;2022-09-01T05:14:53;0.60;;;0.43;;
36725;SDS011;44936;52.086;5.150;2022-09-01T05:17:20;0.93;;;0.52;;
36725;SDS011;44936;52.086;5.150;2022-09-01T05:19:46;3.58;;;0.68;;
36725;SDS011;44936;52.086;5.150;2022-09-01T05:22:13;2.47;;;0.50;;
36725;SDS011;44936;52.086;5.150;2022-09-01T05:24:39;1.20;;;1.00;;
36725;SDS011;44936;52.086;5.150;2022-09-01T05:27:05;2.97;;;0.60;;
36725;SDS011;44936;52.086;5.150;2022-09-01T05:29:32;0.75;;;0.63;;
36725;SDS011;44936;52.086;5.150;2022-09-01T05:31:58;0.73;;;0.55;;
36725;SDS011;44936;52.086;5.150;2022-09-01T05:34:24;0.80;;;0.50;;
36725;SDS011;44936;52.086;5.150;2022-09-01T05:36:57;2.72;;;0.75;;
36725;SDS011;44936;52.086;5.150;2022-09-01T05:39:23;1.50;;;0.70;;
36725;SDS011;44936;52.086;5.150;2022-09-01T05:41:49;0.85;;;0.60;;
36725;SDS011;44936;52.086;5.150;2022-09-01T05:44:14;0.90;;;0.60;;
36725;SDS011;44936;52.086;5.150;2022-09-01T05:46:40;1.75;;;1.15;;
36725;SDS011;44936;52.086;5.150;2022-09-01T05:49:08;0.93;;;0.50;;
36725;SDS011;44936;52.086;5.150;2022-09-01T05:51:38;1.77;;;0.93;;
36725;SDS011;44936;52.086;5.150;2022-09-01T05:54:05;1.88;;;0.80;;
36725;SDS011;44936;52.086;5.150;2022-09-01T05:56:33;1.58;;;0.68;;
36725;SDS011;44936;52.086;5.150;2022-09-01T05:59:00;1.10;;;0.57;;
36725;SDS011;44936;52.086;5.150;2022-09-01T06:01:27;2.42;;;0.70;;
36725;SDS011;44936;52.086;5.150;2022-09-01T06:03:53;4.50;;;0.55;;
36725;SDS011;44936;52.086;5.150;2022-09-01T06:06:20;3.25;;;0.60;;
36725;SDS011;44936;52.086;5.150;2022-09-01T06:08:47;0.57;;;0.50;;
36725;SDS011;44936;52.086;5.150;2022-09-01T06:11:13;1.05;;;0.55;;
36725;SDS011;44936;52.086;5.150;2022-09-01T06:13:41;0.63;;;0.50;;
36725;SDS011;44936;52.086;5.150;2022-09-01T06:16:07;1.30;;;0.60;;
36725;SDS011;44936;52.086;5.150;2022-09-01T06:18:33;1.52;;;0.63;;
36725;SDS011;44936;52.086;5.150;2022-09-01T06:20:58;2.28;;;0.80;;
36725;SDS011;44936;52.086;5.150;2022-09-01T06:23:24;1.17;;;0.57;;
36725;SDS011;44936;52.086;5.150;2022-09-01T06:25:49;0.57;;;0.57;;
36725;SDS011;44936;52.086;5.150;2022-09-01T06:28:16;1.35;;;0.50;;
36725;SDS011;44936;52.086;5.150;2022-09-01T06:30:44;0.40;;;0.40;;
36725;SDS011;44936;52.086;5.150;2022-09-01T06:33:09;1.88;;;0.57;;
36725;SDS011;44936;52.086;5.150;2022-09-01T06:35:37;0.50;;;0.40;;
36725;SDS011;44936;52.086;5.150;2022-09-01T06:38:05;1.05;;;0.52;;
36725;SDS011;44936;52.086;5.150;2022-09-01T06:40:31;1.23;;;0.50;;
36725;SDS011;44936;52.086;5.150;2022-09-01T06:42:57;0.60;;;0.60;;
36725;SDS011;44936;52.086;5.150;2022-09-01T06:45:27;0.52;;;0.52;;
36725;SDS011;44936;52.086;5.150;2022-09-01T06:47:52;1.05;;;0.52;;
36725;SDS011;44936;52.086;5.150;2022-09-01T06:50:19;1.02;;;0.80;;
36725;SDS011;44936;52.086;5.150;2022-09-01T06:52:48;0.30;;;0.30;;
36725;SDS011;44936;52.086;5.150;2022-09-01T06:55:25;1.05;;;0.40;;
36725;SDS011;44936;52.086;5.150;2022-09-01T06:57:57;0.75;;;0.75;;
36725;SDS011;44936;52.086;5.150;2022-09-01T07:00:23;0.50;;;0.45;;
36725;SDS011;44936;52.086;5.150;2022-09-01T07:02:53;1.02;;;0.60;;
36725;SDS011;44936;52.086;5.150;2022-09-01T07:05:18;1.05;;;0.60;;
36725;SDS011;44936;52.086;5.150;2022-09-01T07:07:46;1.33;;;0.65;;
36725;SDS011;44936;52.086;5.150;2022-09-01T07:10:14;0.32;;;0.30;;
36725;SDS011;44936;52.086;5.150;2022-09-01T07:12:39;0.67;;;0.63;;
36725;SDS011;44936;52.086;5.150;2022-09-01T07:15:07;0.70;;;0.40;;
36725;SDS011;44936;52.086;5.150;2022-09-01T07:17:32;2.92;;;0.50;;
36725;SDS011;44936;52.086;5.150;2022-09-01T07:19:58;0.80;;;0.47;;
36725;SDS011;44936;52.086;5.150;2022-09-01T07:22:23;4.38;;;0.57;;
36725;SDS011;44936;52.086;5.150;2022-09-01T07:24:49;1.60;;;0.70;;
36725;SDS011;44936;52.086;5.150;2022-09-01T07:27:16;0.35;;;0.32;;
36725;SDS011;44936;52.086;5.150;2022-09-01T07:29:41;2.58;;;0.55;;
36725;SDS011;44936;52.086;5.150;2022-09-01T07:32:07;1.77;;;0.60;;
36725;SDS011;44936;52.086;5.150;2022-09-01T07:34:33;2.25;;;0.70;;
36725;SDS011;44936;52.086;5.150;2022-09-01T07:36:59;0.57;;;0.40;;
36725;SDS011;44936;52.086;5.150;2022-09-01T07:39:25;2.58;;;0.70;;
36725;SDS011;44936;52.086;5.150;2022-09-01T07:41:50;2.55;;;0.50;;
36725;SDS011;44936;52.086;5.150;2022-09-01T07:44:17;0.90;;;0.45;;
36725;SDS011;44936;52.086;5.150;2022-09-01T07:46:42;0.50;;;0.50;;
36725;SDS011;44936;52.086;5.150;2022-09-01T07:49:07;0.63;;;0.57;;
36725;SDS011;44936;52.086;5.150;2022-09-01T07:51:33;2.15;;;0.40;;
36725;SDS011;44936;52.086;5.150;2022-09-01T07:53:59;1.55;;;0.63;;
36725;SDS011;44936;52.086;5.150;2022-09-01T07:56:26;0.38;;;0.38;;
36725;SDS011;44936;52.086;5.150;2022-09-01T07:58:53;1.25;;;0.63;;
36725;SDS011;44936;52.086;5.150;2022-09-01T08:01:24;1.10;;;0.50;;
36725;SDS011;44936;52.086;5.150;2022-09-01T08:03:52;0.50;;;0.50;;
36725;SDS011;44936;52.086;5.150;2022-09-01T08:06:18;1.85;;;0.30;;
36725;SDS011;44936;52.086;5.150;2022-09-01T08:08:45;0.73;;;0.73;;
36725;SDS011;44936;52.086;5.150;2022-09-01T08:11:14;3.53;;;0.30;;
36725;SDS011;44936;52.086;5.150;2022-09-01T08:13:40;1.38;;;0.80;;
36725;SDS011;44936;52.086;5.150;2022-09-01T08:16:06;0.30;;;0.30;;
36725;SDS011;44936;52.086;5.150;2022-09-01T08:18:32;2.70;;;0.70;;
36725;SDS011;44936;52.086;5.150;2022-09-01T08:20:57;1.00;;;0.32;;
36725;SDS011;44936;52.086;5.150;2022-09-01T08:23:22;4.77;;;0.63;;
36725;SDS011;44936;52.086;5.150;2022-09-01T08:25:51;1.35;;;0.30;;
36725;SDS011;44936;52.086;5.150;2022-09-01T08:28:17;0.90;;;0.30;;
36725;SDS011;44936;52.086;5.150;2022-09-01T08:30:43;0.40;;;0.30;;
36725;SDS011;44936;52.086;5.150;2022-09-01T08:33:09;0.40;;;0.10;;
36725;SDS011;44936;52.086;5.150;2022-09-01T08:35:37;0.93;;;0.15;;
36725;SDS011;44936;52.086;5.150;2022-09-01T08:38:02;0.22;;;0.22;;
36725;SDS011;44936;52.086;5.150;2022-09-01T08:40:27;0.40;;;0.37;;
36725;SDS011;44936;52.086;5.150;2022-09-01T08:43:17;0.93;;;0.60;;
36725;SDS011;44936;52.086;5.150;2022-09-01T08:48:54;0.20;;;0.20;;
36725;SDS011;44936;52.086;5.150;2022-09-01T08:51:04;1.05;;;0.55;;
36725;SDS011;44936;52.086;5.150;2022-09-01T08:53:35;0.28;;;0.25;;
36725;SDS011;44936;52.086;5.150;2022-09-01T08:56:02;0.22;;;0.22;;
36725;SDS011;44936;52.086;5.150;2022-09-01T08:58:29;0.75;;;0.32;;
36725;SDS011;44936;52.086;5.150;2022-09-01T09:00:56;0.20;;;0.20;;
36725;SDS011;44936;52.086;5.150;2022-09-01T09:08:49;0.20;;;0.20;;
36725;SDS011;44936;52.086;5.150;2022-09-01T09:13:59;0.60;;;0.20;;
36725;SDS011;44936;52.086;5.150;2022-09-01T09:16:40;0.63;;;0.10;;
36725;SDS011;44936;52.086;5.150;2022-09-01T09:19:14;0.32;;;0.22;;
36725;SDS011;44936;52.086;5.150;2022-09-01T09:21:41;0.68;;;0.45;;
36725;SDS011;44936;52.086;5.150;2022-09-01T09:24:12;0.20;;;0.20;;
36725;SDS011;44936;52.086;5.150;2022-09-01T09:26:39;0.15;;;0.15;;
36725;SDS011;44936;52.086;5.150;2022-09-01T09:29:05;2.53;;;0.40;;
36725;SDS011;44936;52.086;5.150;2022-09-01T09:31:35;5.47;;;0.40;;
36725;SDS011;44936;52.086;5.150;2022-09-01T09:34:02;0.52;;;0.30;;
36725;SDS011;44936;52.086;5.150;2022-09-01T09:36:30;0.35;;;0.28;;
36725;SDS011;44936;52.086;5.150;2022-09-01T09:41:27;1.13;;;0.55;;
36725;SDS011;44936;52.086;5.150;2022-09-01T09:43:56;0.30;;;0.15;;
36725;SDS011;44936;52.086;5.150;2022-09-01T09:46:24;1.75;;;0.22;;
36725;SDS011;44936;52.086;5.150;2022-09-01T09:51:34;0.40;;;0.30;;
36725;SDS011;44936;52.086;5.150;2022-09-01T09:56:44;0.60;;;0.30;;
36725;SDS011;44936;52.086;5.150;2022-09-01T10:04:45;4.05;;;0.30;;
36725;SDS011;44936;52.086;5.150;2022-09-01T10:07:30;0.40;;;0.30;;
36725;SDS011;44936;52.086;5.150;2022-09-01T10:09:57;0.28;;;0.28;;
36725;SDS011;44936;52.086;5.150;2022-09-01T10:12:23;0.65;;;0.30;;
36725;SDS011;44936;52.086;5.150;2022-09-01T10:14:50;0.25;;;0.22;;
36725;SDS011;44936;52.086;5.150;2022-09-01T10:17:22;1.17;;;0.20;;
36725;SDS011;44936;52.086;5.150;2022-09-01T10:19:51;0.68;;;0.13;;
36725;SDS011;44936;52.086;5.150;2022-09-01T10:22:18;1.48;;;0.20;;
36725;SDS011;44936;52.086;5.150;2022-09-01T10:24:43;0.55;;;0.35;;
36725;SDS011;44936;52.086;5.150;2022-09-01T10:27:16;0.70;;;0.20;;
36725;SDS011;44936;52.086;5.150;2022-09-01T10:29:43;2.00;;;0.30;;
36725;SDS011;44936;52.086;5.150;2022-09-01T10:32:10;0.55;;;0.20;;
36725;SDS011;44936;52.086;5.150;2022-09-01T10:34:37;0.73;;;0.38;;
36725;SDS011;44936;52.086;5.150;2022-09-01T10:37:05;0.30;;;0.28;;
36725;SDS011;44936;52.086;5.150;2022-09-01T10:39:30;0.20;;;0.20;;
36725;SDS011;44936;52.086;5.150;2022-09-01T10:41:56;0.20;;;0.20;;
36725;SDS011;44936;52.086;5.150;2022-09-01T10:46:48;3.10;;;0.40;;
36725;SDS011;44936;52.086;5.150;2022-09-01T10:49:18;1.15;;;0.30;;
36725;SDS011;44936;52.086;5.150;2022-09-01T10:51:44;3.20;;;0.20;;
36725;SDS011;44936;52.086;5.150;2022-09-01T10:54:46;0.20;;;0.20;;
36725;SDS011;44936;52.086;5.150;2022-09-01T10:56:55;0.38;;;0.30;;
36725;SDS011;44936;52.086;5.150;2022-09-01T11:04:17;0.80;;;0.30;;
36725;SDS011;44936;52.086;5.150;2022-09-01T11:06:44;0.10;;;0.10;;
36725;SDS011;44936;52.086;5.150;2022-09-01T11:09:26;0.20;;;0.20;;
36725;SDS011;44936;52.086;5.150;2022-09-01T11:14:27;0.68;;;0.32;;
36725;SDS011;44936;52.086;5.150;2022-09-01T11:22:04;0.20;;;0.10;;
36725;SDS011;44936;52.086;5.150;2022-09-01T11:27:08;3.30;;;0.30;;
36725;SDS011;44936;52.086;5.150;2022-09-01T11:29:50;0.60;;;0.20;;
36725;SDS011;44936;52.086;5.150;2022-09-01T11:32:16;3.35;;;0.30;;
36725;SDS011;44936;52.086;5.150;2022-09-01T11:34:41;0.38;;;0.20;;
36725;SDS011;44936;52.086;5.150;2022-09-01T11:37:12;0.73;;;0.22;;
36725;SDS011;44936;52.086;5.150;2022-09-01T11:39:40;0.20;;;0.20;;
36725;SDS011;44936;52.086;5.150;2022-09-01T11:42:20;0.13;;;0.13;;
36725;SDS011;44936;52.086;5.150;2022-09-01T11:47:17;0.90;;;0.40;;
36725;SDS011;44936;52.086;5.150;2022-09-01T11:49:50;0.65;;;0.32;;
36725;SDS011;44936;52.086;5.150;2022-09-01T11:52:17;0.30;;;0.10;;
36725;SDS011;44936;52.086;5.150;2022-09-01T11:54:43;0.22;;;0.20;;
36725;SDS011;44936;52.086;5.150;2022-09-01T11:59:42;0.10;;;0.10;;
36725;SDS011;44936;52.086;5.150;2022-09-01T12:02:07;0.20;;;0.17;;
36725;SDS011;44936;52.086;5.150;2022-09-01T12:04:33;0.40;;;0.20;;
36725;SDS011;44936;52.086;5.150;2022-09-01T12:07:05;0.30;;;0.15;;
36725;SDS011;44936;52.086;5.150;2022-09-01T12:09:34;0.20;;;0.20;;
36725;SDS011;44936;52.086;5.150;2022-09-01T12:12:00;0.30;;;0.30;;
36725;SDS011;44936;52.086;5.150;2022-09-01T12:14:26;1.17;;;0.20;;
36725;SDS011;44936;52.086;5.150;2022-09-01T12:16:55;0.10;;;0.10;;
36725;SDS011;44936;52.086;5.150;2022-09-01T12:19:22;0.28;;;0.13;;
36725;SDS011;44936;52.086;5.150;2022-09-01T12:21:55;0.55;;;0.28;;
36725;SDS011;44936;52.086;5.150;2022-09-01T12:26:46;0.00;;;0.00;;
36725;SDS011;44936;52.086;5.150;2022-09-01T12:29:12;0.28;;;0.28;;
36725;SDS011;44936;52.086;5.150;2022-09-01T12:31:42;0.10;;;0.08;;
36725;SDS011;44936;52.086;5.150;2022-09-01T12:34:24;0.70;;;0.25;;
36725;SDS011;44936;52.086;5.150;2022-09-01T12:39:34;0.38;;;0.20;;
36725;SDS011;44936;52.086;5.150;2022-09-01T12:42:01;0.10;;;0.10;;
36725;SDS011;44936;52.086;5.150;2022-09-01T12:46:53;0.70;;;0.10;;
36725;SDS011;44936;52.086;5.150;2022-09-01T12:49:21;0.15;;;0.15;;
36725;SDS011;44936;52.086;5.150;2022-09-01T12:51:49;0.20;;;0.20;;
36725;SDS011;44936;52.086;5.150;2022-09-01T12:54:16;0.80;;;0.13;;
36725;SDS011;44936;52.086;5.150;2022-09-01T12:56:51;0.30;;;0.20;;
36725;SDS011;44936;52.086;5.150;2022-09-01T12:59:20;1.20;;;0.20;;
36725;SDS011;44936;52.086;5.150;2022-09-01T13:01:46;0.63;;;0.10;;
36725;SDS011;44936;52.086;5.150;2022-09-01T13:06:47;0.15;;;0.13;;
36725;SDS011;44936;52.086;5.150;2022-09-01T13:09:12;3.03;;;0.10;;
36725;SDS011;44936;52.086;5.150;2022-09-01T13:11:37;0.10;;;0.10;;
36725;SDS011;44936;52.086;5.150;2022-09-01T13:14:03;0.10;;;0.10;;
36725;SDS011;44936;52.086;5.150;2022-09-01T13:16:28;1.30;;;0.20;;
36725;SDS011;44936;52.086;5.150;2022-09-01T13:18:54;0.10;;;0.10;;
36725;SDS011;44936;52.086;5.150;2022-09-01T13:21:19;0.23;;;0.20;;
36725;SDS011;44936;52.086;5.150;2022-09-01T13:23:45;0.47;;;0.20;;
36725;SDS011;44936;52.086;5.150;2022-09-01T13:26:10;0.10;;;0.10;;
36725;SDS011;44936;52.086;5.150;2022-09-01T13:28:36;1.60;;;0.40;;
36725;SDS011;44936;52.086;5.150;2022-09-01T13:31:02;0.20;;;0.20;;
36725;SDS011;44936;52.086;5.150;2022-09-01T13:33:30;1.13;;;0.20;;
36725;SDS011;44936;52.086;5.150;2022-09-01T13:35:56;1.23;;;0.10;;
36725;SDS011;44936;52.086;5.150;2022-09-01T13:38:21;0.90;;;0.20;;
36725;SDS011;44936;52.086;5.150;2022-09-01T13:40:47;0.20;;;0.17;;
36725;SDS011;44936;52.086;5.150;2022-09-01T13:43:17;0.20;;;0.20;;
36725;SDS011;44936;52.086;5.150;2022-09-01T13:45:43;0.25;;;0.20;;
36725;SDS011;44936;52.086;5.150;2022-09-01T13:48:09;0.77;;;0.10;;
36725;SDS011;44936;52.086;5.150;2022-09-01T13:50:35;0.17;;;0.17;;
36725;SDS011;44936;52.086;5.150;2022-09-01T13:53:00;1.38;;;0.50;;
36725;SDS011;44936;52.086;5.150;2022-09-01T13:55:27;1.30;;;0.43;;
36725;SDS011;44936;52.086;5.150;2022-09-01T13:57:53;0.32;;;0.32;;
36725;SDS011;44936;52.086;5.150;2022-09-01T14:00:23;0.25;;;0.20;;
36725;SDS011;44936;52.086;5.150;2022-09-01T14:02:49;0.10;;;0.10;;
36725;SDS011;44936;52.086;5.150;2022-09-01T14:05:17;0.10;;;0.10;;
36725;SDS011;44936;52.086;5.150;2022-09-01T14:07:43;0.20;;;0.20;;
36725;SDS011;44936;52.086;5.150;2022-09-01T14:10:08;0.10;;;0.10;;
36725;SDS011;44936;52.086;5.150;2022-09-01T14:12:34;0.30;;;0.10;;
36725;SDS011;44936;52.086;5.150;2022-09-01T14:14:59;0.43;;;0.30;;
36725;SDS011;44936;52.086;5.150;2022-09-01T14:17:24;0.27;;;0.10;;
36725;SDS011;44936;52.086;5.150;2022-09-01T14:19:50;0.20;;;0.20;;
36725;SDS011;44936;52.086;5.150;2022-09-01T14:22:16;0.55;;;0.20;;
36725;SDS011;44936;52.086;5.150;2022-09-01T14:24:41;0.47;;;0.30;;
36725;SDS011;44936;52.086;5.150;2022-09-01T14:27:07;0.30;;;0.25;;
36725;SDS011;44936;52.086;5.150;2022-09-01T14:29:32;0.27;;;0.17;;
36725;SDS011;44936;52.086;5.150;2022-09-01T14:31:57;0.40;;;0.30;;
36725;SDS011;44936;52.086;5.150;2022-09-01T14:34:23;2.55;;;0.30;;
36725;SDS011;44936;52.086;5.150;2022-09-01T14:36:48;0.45;;;0.20;;
36725;SDS011;44936;52.086;5.150;2022-09-01T14:39:14;0.90;;;0.20;;
36725;SDS011;44936;52.086;5.150;2022-09-01T14:41:39;1.23;;;0.33;;
36725;SDS011;44936;52.086;5.150;2022-09-01T14:44:04;0.23;;;0.20;;
36725;SDS011;44936;52.086;5.150;2022-09-01T14:46:30;0.43;;;0.20;;
36725;SDS011;44936;52.086;5.150;2022-09-01T14:48:58;0.10;;;0.10;;
36725;SDS011;44936;52.086;5.150;2022-09-01T14:51:28;0.25;;;0.20;;
36725;SDS011;44936;52.086;5.150;2022-09-01T14:53:54;1.40;;;0.20;;
36725;SDS011;44936;52.086;5.150;2022-09-01T14:56:19;0.40;;;0.10;;
36725;SDS011;44936;52.086;5.150;2022-09-01T14:58:45;2.20;;;0.10;;
36725;SDS011;44936;52.086;5.150;2022-09-01T15:01:14;0.20;;;0.20;;
36725;SDS011;44936;52.086;5.150;2022-09-01T15:03:40;0.30;;;0.10;;
36725;SDS011;44936;52.086;5.150;2022-09-01T15:06:06;0.30;;;0.30;;
36725;SDS011;44936;52.086;5.150;2022-09-01T15:08:31;0.15;;;0.10;;
36725;SDS011;44936;52.086;5.150;2022-09-01T15:10:56;0.53;;;0.17;;
36725;SDS011;44936;52.086;5.150;2022-09-01T15:13:22;0.95;;;0.20;;
36725;SDS011;44936;52.086;5.150;2022-09-01T15:15:47;0.47;;;0.30;;
36725;SDS011;44936;52.086;5.150;2022-09-01T15:18:12;0.10;;;0.10;;
36725;SDS011;44936;52.086;5.150;2022-09-01T15:20:38;0.50;;;0.20;;
36725;SDS011;44936;52.086;5.150;2022-09-01T15:23:12;0.75;;;0.20;;
36725;SDS011;44936;52.086;5.150;2022-09-01T15:25:38;0.22;;;0.20;;
36725;SDS011;44936;52.086;5.150;2022-09-01T15:28:03;0.60;;;0.40;;
36725;SDS011;44936;52.086;5.150;2022-09-01T15:30:28;0.20;;;0.20;;
36725;SDS011;44936;52.086;5.150;2022-09-01T15:32:54;1.60;;;0.20;;
36725;SDS011;44936;52.086;5.150;2022-09-01T15:35:20;0.10;;;0.10;;
36725;SDS011;44936;52.086;5.150;2022-09-01T15:37:46;0.38;;;0.20;;
36725;SDS011;44936;52.086;5.150;2022-09-01T15:40:12;0.68;;;0.10;;
36725;SDS011;44936;52.086;5.150;2022-09-01T15:42:37;0.22;;;0.20;;
36725;SDS011;44936;52.086;5.150;2022-09-01T15:45:07;1.15;;;0.20;;
36725;SDS011;44936;52.086;5.150;2022-09-01T15:47:32;1.35;;;0.57;;